Time;durP1;ratioP1;P1;durP2;ratioP2;P2;SDS_P1;SDS_P2;PMS_P1;PMS_P2;Temp;Humidity;BMP_temperature;BMP_pressure;BME280_temperature;BME280_humidity;BME280_pressure;Samples;Min_cycle;Max_cycle;Signal;HPM_P1;HPM_P2
2022/10/25 00:00:12;;;;;;;7.03;3.25;;;;;;;12.36;100.00;96499.50;5039458;28;20216;-73
2022/10/25 00:02:38;;;;;;;9.30;3.10;;;;;;;12.32;100.00;96492.94;5039062;28;20225;-74
2022/10/25 00:05:06;;;;;;;11.63;2.93;;;;;;;12.32;100.00;96492.09;5038220;28;20201;-73
2022/10/25 00:07:33;;;;;;;4.80;2.55;;;;;;;12.21;100.00;96495.19;5039405;28;20573;-74
2022/10/25 00:09:59;;;;;;;4.00;2.65;;;;;;;12.23;100.00;96491.38;5039862;28;20212;-73
2022/10/25 00:12:27;;;;;;;6.63;2.88;;;;;;;12.27;100.00;96492.66;5038285;28;21282;-73
2022/10/25 00:14:53;;;;;;;7.73;3.10;;;;;;;12.11;100.00;96489.34;5039431;28;20205;-74
2022/10/25 00:17:20;;;;;;;5.53;2.90;;;;;;;11.99;100.00;96489.97;5039250;28;20251;-73
2022/10/25 00:19:46;;;;;;;3.77;2.40;;;;;;;12.02;100.00;96502.81;5039161;28;20718;-73
2022/10/25 00:22:13;;;;;;;9.30;2.70;;;;;;;12.02;100.00;96492.25;5038536;28;20225;-73
2022/10/25 00:24:39;;;;;;;7.57;2.57;;;;;;;12.07;100.00;96489.91;5039265;28;20207;-73
2022/10/25 00:27:06;;;;;;;4.47;2.40;;;;;;;11.91;100.00;96480.28;5038987;28;20300;-74
2022/10/25 00:29:34;;;;;;;4.57;2.37;;;;;;;11.99;100.00;96485.53;5039295;28;20205;-73
2022/10/25 00:32:00;;;;;;;4.50;2.50;;;;;;;11.90;100.00;96476.03;5038917;28;20224;-74
2022/10/25 00:34:27;;;;;;;7.47;2.83;;;;;;;11.87;100.00;96479.00;5038283;28;20239;-73
2022/10/25 00:36:53;;;;;;;7.43;2.47;;;;;;;11.83;100.00;96483.00;5039071;28;20216;-74
2022/10/25 00:39:20;;;;;;;6.20;2.47;;;;;;;11.80;100.00;96477.25;5038520;28;20691;-74
2022/10/25 00:41:46;;;;;;;5.47;2.70;;;;;;;11.79;100.00;96475.63;5039070;28;20212;-73
2022/10/25 00:44:48;;;;;;;5.90;2.10;;;;;;;11.86;100.00;96471.28;5037770;28;20225;-74
2022/10/25 00:47:22;;;;;;;5.17;2.10;;;;;;;11.80;100.00;96478.09;5038586;28;20201;-73
2022/10/25 00:49:54;;;;;;;4.17;2.40;;;;;;;11.86;100.00;96479.19;5038554;28;20207;-73
2022/10/25 00:52:21;;;;;;;4.50;2.40;;;;;;;11.84;100.00;96486.50;5038107;28;20217;-74
2022/10/25 00:54:53;;;;;;;3.47;2.20;;;;;;;11.93;100.00;96490.69;5038225;28;20197;-73
2022/10/25 00:57:24;;;;;;;2.77;2.00;;;;;;;11.84;100.00;96489.13;5038311;28;20680;-74
2022/10/25 00:59:52;;;;;;;4.87;2.40;;;;;;;11.87;100.00;96491.41;5038122;28;20197;-73
2022/10/25 01:02:22;;;;;;;3.10;2.15;;;;;;;11.89;100.00;96497.31;5037830;28;20217;-73
2022/10/25 01:04:49;;;;;;;2.93;1.70;;;;;;;11.87;100.00;96491.41;5038324;28;20214;-73
2022/10/25 01:07:15;;;;;;;3.77;2.30;;;;;;;11.78;100.00;96487.19;5038367;28;20201;-73
2022/10/25 01:09:42;;;;;;;3.93;2.27;;;;;;;11.77;100.00;96493.47;5037976;28;20209;-73
2022/10/25 01:12:09;;;;;;;7.35;2.20;;;;;;;11.76;100.00;96491.81;5037571;28;20984;-73
2022/10/25 01:14:41;;;;;;;2.55;1.55;;;;;;;11.87;100.00;96494.84;5037673;28;20205;-74
2022/10/25 01:17:18;;;;;;;3.80;2.03;;;;;;;11.87;100.00;96494.03;5037120;28;20204;-73
2022/10/25 01:20:04;;;;;;;8.67;3.03;;;;;;;11.81;100.00;96486.81;5038211;28;20570;-74
2022/10/25 01:22:36;;;;;;;5.47;2.78;;;;;;;11.65;100.00;96481.69;5037624;28;20225;-72
2022/10/25 01:25:21;;;;;;;9.07;3.53;;;;;;;11.66;100.00;96475.44;5037857;28;20212;-73
2022/10/25 01:27:59;;;;;;;9.33;3.30;;;;;;;11.68;100.00;96479.53;5038135;28;20199;-72
2022/10/25 01:30:34;;;;;;;8.37;3.57;;;;;;;11.66;100.00;96480.69;5037725;28;20204;-73
2022/10/25 01:33:12;;;;;;;6.90;2.93;;;;;;;11.63;100.00;96483.69;5036925;28;20220;-73
2022/10/25 01:35:45;;;;;;;7.27;2.70;;;;;;;11.54;100.00;96471.53;5037557;28;20800;-73
2022/10/25 01:38:33;;;;;;;7.57;2.33;;;;;;;11.70;100.00;96471.44;5037926;28;20203;-73
2022/10/25 01:41:10;;;;;;;6.63;2.33;;;;;;;11.53;100.00;96469.91;5037582;28;20204;-73
2022/10/25 01:43:43;;;;;;;3.40;1.83;;;;;;;11.51;100.00;96476.34;5037216;28;20229;-72
2022/10/25 01:46:18;;;;;;;2.13;1.50;;;;;;;11.51;100.00;96471.06;5037704;28;20204;-73
2022/10/25 01:48:50;;;;;;;2.67;1.63;;;;;;;11.53;100.00;96469.91;5036927;28;20209;-73
2022/10/25 01:51:18;;;;;;;7.57;2.00;;;;;;;11.43;100.00;96465.81;5037436;28;20225;-73
2022/10/25 01:53:49;;;;;;;3.13;1.90;;;;;;;11.53;100.00;96467.25;5036866;28;20229;-73
2022/10/25 01:56:23;;;;;;;3.43;1.93;;;;;;;11.48;100.00;96466.97;5037422;28;20580;-73
2022/10/25 01:59:04;;;;;;;4.87;1.57;;;;;;;11.31;100.00;96468.06;5037372;28;20200;-73
2022/10/25 02:01:40;;;;;;;4.43;1.93;;;;;;;11.39;100.00;96473.28;5036720;28;20201;-73
2022/10/25 02:04:17;;;;;;;4.27;1.73;;;;;;;11.47;100.00;96480.31;5036671;28;20224;-72
2022/10/25 02:06:53;;;;;;;6.77;1.67;;;;;;;11.49;100.00;96473.03;5037062;28;20204;-73
2022/10/25 02:09:23;;;;;;;3.10;1.80;;;;;;;11.43;100.00;96469.31;5036996;28;20205;-73
2022/10/25 02:11:54;;;;;;;6.00;1.93;;;;;;;11.37;100.00;96475.28;5037171;28;21267;-73
2022/10/25 02:14:27;;;;;;;4.97;1.60;;;;;;;11.50;100.00;96469.44;5036502;28;20215;-72
2022/10/25 02:16:57;;;;;;;2.33;1.80;;;;;;;11.39;100.00;96470.66;5037232;28;20212;-73
2022/10/25 02:19:30;;;;;;;3.50;2.17;;;;;;;11.38;100.00;96469.00;5037100;28;20206;-73
2022/10/25 02:21:59;;;;;;;1.90;1.30;;;;;;;11.36;100.00;96467.53;5036558;28;20197;-72
2022/10/25 02:24:30;;;;;;;2.47;1.63;;;;;;;11.32;100.00;96468.91;5035983;28;20212;-73
2022/10/25 02:26:58;;;;;;;6.20;1.60;;;;;;;11.30;100.00;96469.06;5036959;28;20205;-72
2022/10/25 02:29:29;;;;;;;3.97;1.70;;;;;;;11.29;100.00;96470.06;5036702;28;20216;-73
2022/10/25 02:31:56;;;;;;;4.67;1.60;;;;;;;11.13;100.00;96467.53;5036720;28;20221;-72
2022/10/25 02:34:24;;;;;;;3.17;1.63;;;;;;;11.18;100.00;96464.38;5035928;28;21005;-73
2022/10/25 02:36:52;;;;;;;3.37;1.43;;;;;;;11.13;100.00;96466.72;5037150;28;20205;-73
2022/10/25 02:39:20;;;;;;;3.67;2.10;;;;;;;11.15;100.00;96469.97;5035563;28;20201;-73
2022/10/25 02:41:46;;;;;;;3.07;1.80;;;;;;;11.11;100.00;96479.25;5036989;28;20212;-73
2022/10/25 02:44:13;;;;;;;3.57;1.70;;;;;;;11.13;100.00;96467.53;5036063;28;20225;-72
2022/10/25 02:46:40;;;;;;;2.27;1.50;;;;;;;11.10;100.00;96477.63;5036783;28;20204;-73
2022/10/25 02:49:06;;;;;;;3.60;1.40;;;;;;;11.10;100.00;96482.91;5036925;28;20221;-73
2022/10/25 02:51:34;;;;;;;4.63;1.73;;;;;;;11.12;100.00;96486.16;5036480;28;20228;-73
2022/10/25 02:54:00;;;;;;;2.30;1.50;;;;;;;11.04;100.00;96484.38;5035730;28;20240;-73
2022/10/25 02:56:27;;;;;;;2.93;1.57;;;;;;;11.04;100.00;96479.13;5036764;28;20208;-73
2022/10/25 02:58:57;;;;;;;2.53;1.43;;;;;;;11.05;100.00;96483.41;5036724;28;20213;-73
2022/10/25 03:01:24;;;;;;;2.73;1.47;;;;;;;11.07;100.00;96488.50;5036281;28;20193;-73
2022/10/25 03:03:51;;;;;;;4.03;1.87;;;;;;;11.01;100.00;96486.56;5035849;28;20247;-72
2022/10/25 03:06:18;;;;;;;2.17;1.50;;;;;;;11.03;100.00;96490.66;5036699;28;20208;-73
2022/10/25 03:08:46;;;;;;;8.03;1.50;;;;;;;11.07;100.00;96494.63;5036911;28;20209;-73
2022/10/25 03:11:13;;;;;;;5.43;1.40;;;;;;;10.97;100.00;96483.47;5036259;28;20740;-73
2022/10/25 03:13:40;;;;;;;2.47;1.70;;;;;;;10.91;100.00;96493.03;5035687;28;20607;-73
2022/10/25 03:16:07;;;;;;;2.57;1.60;;;;;;;10.89;100.00;96502.94;5036672;28;20205;-72
2022/10/25 03:18:34;;;;;;;3.10;1.63;;;;;;;10.89;100.00;96495.84;5036346;28;20838;-73
2022/10/25 03:21:02;;;;;;;7.30;1.73;;;;;;;10.95;100.00;96490.69;5036539;28;20212;-72
2022/10/25 03:23:29;;;;;;;2.57;1.40;;;;;;;10.93;100.00;96494.50;5035722;28;20213;-72
2022/10/25 03:25:59;;;;;;;2.63;1.43;;;;;;;11.03;100.00;96495.94;5036716;28;20857;-73
2022/10/25 03:28:27;;;;;;;2.10;1.43;;;;;;;10.93;100.00;96484.81;5036149;28;20212;-73
2022/10/25 03:30:53;;;;;;;3.03;1.70;;;;;;;10.92;100.00;96498.16;5036555;28;20248;-72
2022/10/25 03:33:20;;;;;;;4.07;1.60;;;;;;;10.89;100.00;96501.13;5035281;28;20222;-73
2022/10/25 03:35:49;;;;;;;3.30;1.57;;;;;;;10.98;100.00;96498.28;5036307;28;20210;-73
2022/10/25 03:38:16;;;;;;;5.30;1.20;;;;;;;10.93;100.00;96495.34;5036215;28;20245;-73
2022/10/25 03:40:42;;;;;;;4.03;1.90;;;;;;;10.87;100.00;96491.75;5039173;28;20212;-73
2022/10/25 03:43:10;;;;;;;2.13;1.60;;;;;;;10.97;100.00;96499.28;5039114;28;20897;-73
2022/10/25 03:45:37;;;;;;;3.40;1.83;;;;;;;10.88;100.00;96496.84;5039389;28;20716;-73
2022/10/25 03:48:04;;;;;;;4.10;2.00;;;;;;;10.89;100.00;96497.69;5039770;28;20213;-73
2022/10/25 03:50:30;;;;;;;10.77;1.80;;;;;;;10.93;100.00;96501.59;5040066;28;20204;-73
2022/10/25 03:52:57;;;;;;;4.80;1.70;;;;;;;10.89;100.00;96503.75;5038874;28;20634;-72
2022/10/25 03:55:23;;;;;;;5.50;1.87;;;;;;;10.91;100.00;96503.56;5039426;28;20204;-73
2022/10/25 03:57:50;;;;;;;4.97;1.53;;;;;;;10.90;100.00;96507.22;5039883;28;20674;-73
2022/10/25 04:00:18;;;;;;;4.90;1.97;;;;;;;10.96;100.00;96502.09;5039151;28;20209;-73
2022/10/25 04:02:44;;;;;;;5.37;1.80;;;;;;;10.93;100.00;96497.16;5038266;28;20229;-73
2022/10/25 04:05:11;;;;;;;3.00;1.80;;;;;;;10.93;100.00;96506.88;5039578;28;20216;-73
2022/10/25 04:07:37;;;;;;;2.37;1.60;;;;;;;10.80;100.00;96502.16;5039320;28;20216;-72
2022/10/25 04:10:05;;;;;;;3.20;1.77;;;;;;;10.88;100.00;96502.09;5039352;28;20205;-73
2022/10/25 04:12:31;;;;;;;2.77;1.70;;;;;;;10.88;100.00;96498.66;5038582;28;20229;-72
2022/10/25 04:14:58;;;;;;;3.63;1.60;;;;;;;10.89;100.00;96505.59;5039587;28;20581;-73
2022/10/25 04:17:26;;;;;;;4.67;1.70;;;;;;;10.92;100.00;96505.22;5039267;28;20208;-72
2022/10/25 04:19:52;;;;;;;3.33;1.57;;;;;;;10.86;100.00;96500.63;5039388;28;20208;-73
2022/10/25 04:22:18;;;;;;;7.97;2.20;;;;;;;10.88;100.00;96503.94;5038699;28;20209;-73
2022/10/25 04:24:45;;;;;;;12.33;5.53;;;;;;;10.93;100.00;96508.53;5039106;28;20212;-72
2022/10/25 04:27:12;;;;;;;9.87;4.10;;;;;;;10.88;100.00;96509.22;5038861;28;20201;-73
2022/10/25 04:29:38;;;;;;;6.90;3.50;;;;;;;10.93;100.00;96508.53;5039622;28;20201;-72
2022/10/25 04:32:06;;;;;;;4.17;2.77;;;;;;;11.01;100.00;96511.13;5038592;28;20693;-72
2022/10/25 04:34:33;;;;;;;8.67;2.70;;;;;;;10.91;100.00;96508.84;5038665;28;20201;-73
2022/10/25 04:37:00;;;;;;;3.17;2.03;;;;;;;10.70;100.00;96519.16;5039009;28;20209;-72
2022/10/25 04:39:27;;;;;;;7.13;2.50;;;;;;;10.87;100.00;96512.84;5039088;28;20200;-73
2022/10/25 04:41:53;;;;;;;8.47;2.30;;;;;;;10.86;100.00;96511.19;5038569;28;20205;-73
2022/10/25 04:44:19;;;;;;;4.80;2.20;;;;;;;10.79;100.00;96512.88;5037903;28;20204;-73
2022/10/25 04:46:46;;;;;;;6.50;2.43;;;;;;;10.87;100.00;96529.50;5039323;28;20212;-72
2022/10/25 04:49:14;;;;;;;3.67;2.20;;;;;;;10.92;100.00;96516.63;5038243;28;20213;-73
2022/10/25 04:51:42;;;;;;;5.10;2.27;;;;;;;10.88;100.00;96525.84;5037502;28;20205;-73
2022/10/25 04:54:08;;;;;;;4.47;2.27;;;;;;;10.89;100.00;96526.69;5037850;28;20221;-73
2022/10/25 04:56:35;;;;;;;4.17;2.20;;;;;;;10.88;100.00;96519.75;5038331;28;20205;-73
2022/10/25 04:59:01;;;;;;;9.50;2.57;;;;;;;10.84;100.00;96526.38;5038671;28;20201;-73
2022/10/25 05:01:28;;;;;;;3.70;2.30;;;;;;;10.80;100.00;96535.63;5038054;28;20202;-73
2022/10/25 05:03:54;;;;;;;5.07;2.57;;;;;;;10.82;100.00;96534.44;5037974;28;20217;-73
2022/10/25 05:06:24;;;;;;;5.20;2.60;;;;;;;10.85;100.00;96536.72;5037812;28;20201;-73
2022/10/25 05:08:52;;;;;;;11.77;2.80;;;;;;;10.93;100.00;96537.53;5038213;28;20298;-73
2022/10/25 05:11:20;;;;;;;7.97;2.90;;;;;;;10.91;100.00;96540.50;5038023;28;21084;-73
2022/10/25 05:13:47;;;;;;;6.60;2.67;;;;;;;10.87;100.00;96547.09;5037312;28;20229;-73
2022/10/25 05:16:16;;;;;;;5.90;2.60;;;;;;;10.93;100.00;96541.16;5038248;28;20216;-73
2022/10/25 05:18:45;;;;;;;4.40;2.77;;;;;;;10.92;100.00;96544.78;5038650;28;20236;-72
2022/10/25 05:21:12;;;;;;;5.10;2.30;;;;;;;10.91;100.00;96548.41;5037797;28;20685;-72
2022/10/25 05:23:38;;;;;;;6.43;2.50;;;;;;;10.87;100.00;96547.09;5037096;28;20228;-73
2022/10/25 05:26:08;;;;;;;5.03;2.40;;;;;;;10.95;100.00;96546.06;5038005;28;20208;-73
2022/10/25 05:28:36;;;;;;;4.97;2.20;;;;;;;10.93;100.00;96546.44;5037845;28;20657;-72
2022/10/25 05:31:04;;;;;;;7.00;2.47;;;;;;;10.99;100.00;96550.00;5038264;28;20210;-72
2022/10/25 05:33:30;;;;;;;9.73;2.33;;;;;;;10.97;100.00;96541.47;5036723;28;20225;-72
2022/10/25 05:35:59;;;;;;;7.97;2.50;;;;;;;11.04;100.00;96534.50;5038256;28;20205;-72
2022/10/25 05:38:25;;;;;;;4.60;2.43;;;;;;;10.97;100.00;96543.25;5037557;28;20551;-72
2022/10/25 05:40:53;;;;;;;5.80;2.07;;;;;;;10.99;100.00;96544.72;5037542;28;20214;-72
2022/10/25 05:43:21;;;;;;;10.17;2.37;;;;;;;10.95;100.00;96555.81;5037216;28;20302;-72
2022/10/25 05:45:48;;;;;;;3.97;2.30;;;;;;;10.92;100.00;96555.31;5037395;28;20220;-72
2022/10/25 05:48:15;;;;;;;8.23;2.43;;;;;;;10.94;100.00;96552.34;5037132;28;20228;-72
2022/10/25 05:50:42;;;;;;;5.10;2.07;;;;;;;10.91;100.00;96557.16;5037407;28;21072;-72
2022/10/25 05:53:08;;;;;;;4.50;2.83;;;;;;;10.88;100.00;96567.22;5036545;28;20915;-72
2022/10/25 05:55:35;;;;;;;8.90;2.93;;;;;;;10.93;100.00;96570.97;5037719;28;20232;-72
2022/10/25 05:58:02;;;;;;;11.30;4.10;;;;;;;11.00;100.00;96582.50;5037274;28;20331;-72
2022/10/25 06:00:30;;;;;;;7.60;3.53;;;;;;;11.12;100.00;96581.09;5037281;28;20205;-72
2022/10/25 06:02:59;;;;;;;9.00;3.10;;;;;;;11.02;100.00;96581.31;5036374;28;20232;-72
2022/10/25 06:05:26;;;;;;;6.53;3.00;;;;;;;11.04;100.00;96584.59;5037118;28;20193;-72
2022/10/25 06:07:52;;;;;;;5.30;2.80;;;;;;;11.05;100.00;96583.63;5037350;28;20571;-72
2022/10/25 06:10:19;;;;;;;4.70;2.77;;;;;;;11.01;100.00;96579.69;5036760;28;20197;-72
2022/10/25 06:12:45;;;;;;;5.43;2.90;;;;;;;11.01;100.00;96590.22;5036664;28;20280;-72
2022/10/25 06:15:12;;;;;;;11.50;4.30;;;;;;;10.76;100.00;96590.47;5037120;28;20212;-72
2022/10/25 06:17:40;;;;;;;11.17;4.17;;;;;;;10.90;100.00;96591.59;5037176;28;20212;-72
2022/10/25 06:20:07;;;;;;;12.97;4.80;;;;;;;10.89;100.00;96595.22;5037273;28;20220;-72
2022/10/25 06:22:34;;;;;;;9.30;4.47;;;;;;;10.88;100.00;96593.56;5036376;28;20221;-72
2022/10/25 06:25:00;;;;;;;12.53;5.50;;;;;;;10.96;100.00;96594.38;5037215;28;20205;-72
2022/10/25 06:27:27;;;;;;;12.43;5.10;;;;;;;10.89;100.00;96596.03;5036847;28;20672;-72
2022/10/25 06:29:53;;;;;;;14.07;5.80;;;;;;;10.92;100.00;96600.16;5037141;28;20201;-72
2022/10/25 06:32:20;;;;;;;11.87;5.17;;;;;;;10.91;100.00;96598.50;5035752;28;20733;-72
2022/10/25 06:34:47;;;;;;;14.33;5.07;;;;;;;11.03;100.00;96604.03;5037340;28;20205;-72
2022/10/25 06:37:14;;;;;;;8.80;4.20;;;;;;;10.96;100.00;96608.38;5036911;28;20205;-72
2022/10/25 06:39:41;;;;;;;8.37;3.50;;;;;;;11.06;100.00;96614.28;5036975;28;20224;-72
2022/10/25 06:42:07;;;;;;;8.40;4.00;;;;;;;11.02;100.00;96612.97;5036222;28;20678;-71
2022/10/25 06:44:34;;;;;;;5.27;3.43;;;;;;;11.13;100.00;96615.22;5036531;28;20201;-72
2022/10/25 06:47:01;;;;;;;8.53;3.97;;;;;;;11.22;100.00;96624.75;5036434;28;20209;-72
2022/10/25 06:49:28;;;;;;;6.53;3.83;;;;;;;11.18;100.00;96620.81;5037487;28;20213;-72
2022/10/25 06:51:56;;;;;;;8.33;3.60;;;;;;;11.31;100.00;96629.00;5036659;28;20212;-73
2022/10/25 06:54:24;;;;;;;15.03;3.83;;;;;;;11.36;100.00;96634.56;5035860;28;20227;-73
2022/10/25 06:56:50;;;;;;;10.20;3.70;;;;;;;11.36;100.00;96631.13;5037379;28;20372;-73
2022/10/25 06:59:19;;;;;;;9.60;3.67;;;;;;;11.30;100.00;96629.16;5037007;28;20579;-73
2022/10/25 07:01:46;;;;;;;6.73;3.57;;;;;;;11.44;100.00;96620.53;5036889;28;20292;-73
2022/10/25 07:04:13;;;;;;;8.17;4.07;;;;;;;11.60;100.00;96618.66;5035932;28;20228;-72
2022/10/25 07:06:39;;;;;;;10.53;4.17;;;;;;;11.42;100.00;96631.25;5037178;28;20204;-73
2022/10/25 07:09:11;;;;;;;7.33;3.70;;;;;;;11.56;100.00;96633.19;5036928;28;20205;-73
2022/10/25 07:11:38;;;;;;;10.23;4.50;;;;;;;11.54;100.00;96632.53;5037350;28;20208;-73
2022/10/25 07:14:05;;;;;;;9.50;4.60;;;;;;;11.58;100.00;96625.91;5035907;28;20225;-73
2022/10/25 07:16:31;;;;;;;12.77;5.57;;;;;;;11.56;100.00;96627.91;5040796;28;20224;-73
2022/10/25 07:18:59;;;;;;;14.77;5.10;;;;;;;11.72;100.00;96638.38;5040991;28;20197;-73
2022/10/25 07:21:26;;;;;;;11.63;5.17;;;;;;;11.63;100.00;96639.41;5040780;28;20197;-73
2022/10/25 07:23:53;;;;;;;10.17;4.90;;;;;;;11.64;100.00;96641.88;5040291;28;20221;-73
2022/10/25 07:26:23;;;;;;;10.33;4.93;;;;;;;11.74;100.00;96641.66;5040678;28;20204;-73
2022/10/25 07:28:51;;;;;;;15.97;6.30;;;;;;;11.80;100.00;96649.72;5040587;28;20428;-73
2022/10/25 07:31:20;;;;;;;12.33;5.37;;;;;;;11.83;100.00;96644.06;5040556;28;20748;-73
2022/10/25 07:33:46;;;;;;;13.57;6.13;;;;;;;11.87;100.00;96641.91;5039502;28;20276;-73
2022/10/25 07:36:13;;;;;;;11.87;5.80;;;;;;;11.91;100.00;96640.56;5040050;28;20213;-72
2022/10/25 07:38:40;;;;;;;14.23;6.67;;;;;;;11.95;100.00;96640.06;5040547;28;20204;-74
2022/10/25 07:41:07;;;;;;;13.20;6.37;;;;;;;12.13;100.00;96637.09;5040204;28;20207;-73
2022/10/25 07:43:35;;;;;;;15.77;7.37;;;;;;;12.11;100.00;96637.28;5039966;28;20233;-72
2022/10/25 07:46:03;;;;;;;14.10;6.13;;;;;;;12.21;100.00;96643.97;5040656;28;20201;-73
2022/10/25 07:48:30;;;;;;;15.07;6.57;;;;;;;12.33;100.00;96645.22;5040593;28;20270;-73
2022/10/25 07:50:56;;;;;;;12.47;5.53;;;;;;;12.38;100.00;96648.13;5040441;28;20216;-73
2022/10/25 07:53:23;;;;;;;13.83;6.33;;;;;;;12.50;100.00;96649.34;5039698;28;20229;-73
2022/10/25 07:55:51;;;;;;;15.20;6.50;;;;;;;12.81;100.00;96644.75;5040175;28;20205;-73
2022/10/25 07:58:18;;;;;;;15.27;6.23;;;;;;;12.89;100.00;96644.69;5040560;28;20251;-73
2022/10/25 08:00:46;;;;;;;10.50;5.47;;;;;;;13.11;100.00;96641.97;5040180;28;20220;-73
2022/10/25 08:03:14;;;;;;;13.30;5.90;;;;;;;13.15;100.00;96642.41;5039444;28;20217;-73
2022/10/25 08:05:40;;;;;;;11.43;5.43;;;;;;;13.24;100.00;96646.63;5039985;28;20201;-74
2022/10/25 08:08:07;;;;;;;8.57;4.43;;;;;;;13.41;100.00;96649.69;5040644;28;20197;-73
2022/10/25 08:10:33;;;;;;;13.30;4.93;;;;;;;13.51;100.00;96644.94;5040617;28;20217;-73
2022/10/25 08:13:00;;;;;;;9.02;4.45;;;;;;;13.49;100.00;96639.03;5039193;28;20603;-74
2022/10/25 08:15:26;;;;;;;9.13;4.28;;;;;;;13.55;100.00;96635.63;5040253;28;20201;-73
2022/10/25 08:17:59;;;;;;;7.97;4.13;;;;;;;13.51;100.00;96639.66;5039288;28;20669;-73
2022/10/25 08:20:25;;;;;;;8.98;4.30;;;;;;;13.54;100.00;96644.59;5039832;28;20201;-73
2022/10/25 08:22:52;;;;;;;13.13;4.88;;;;;;;13.70;100.00;96644.38;5038869;28;20257;-73
2022/10/25 08:25:19;;;;;;;9.98;4.65;;;;;;;13.72;100.00;96630.94;5039754;28;20204;-74
2022/10/25 08:27:45;;;;;;;10.13;4.45;;;;;;;13.74;100.00;96635.03;5037749;28;20673;-72
2022/10/25 08:30:12;;;;;;;9.13;4.60;;;;;;;13.79;100.00;96635.31;5037840;28;20205;-72
2022/10/25 08:32:38;;;;;;;14.32;5.15;;;;;;;13.78;100.00;96638.94;5033348;28;20648;-72
2022/10/25 08:35:07;;;;;;;15.65;5.18;;;;;;;13.78;100.00;96641.59;5037560;28;20225;-72
2022/10/25 08:37:34;;;;;;;9.65;4.40;;;;;;;13.80;100.00;96644.91;5034537;28;21248;-73
2022/10/25 08:40:00;;;;;;;9.73;5.00;;;;;;;13.90;100.00;96644.59;5036031;28;20728;-73
2022/10/25 08:42:36;;;;;;;7.50;4.13;;;;;;;14.03;100.00;96642.91;5036536;28;20221;-72
2022/10/25 08:45:13;;;;;;;8.93;4.50;;;;;;;14.05;100.00;96643.53;5035902;28;20197;-72
2022/10/25 08:47:45;;;;;;;8.32;4.00;;;;;;;13.99;100.00;96649.59;5036322;28;20211;-72
2022/10/25 08:50:19;;;;;;;7.93;4.30;;;;;;;13.88;100.00;96641.31;5036799;28;20197;-73
2022/10/25 08:52:49;;;;;;;9.27;4.85;;;;;;;14.04;100.00;96641.91;5036209;28;20232;-72
2022/10/25 08:55:19;;;;;;;9.07;4.30;;;;;;;14.05;100.00;96638.22;5037250;28;20198;-72
2022/10/25 08:57:49;;;;;;;8.27;3.85;;;;;;;14.15;100.00;96634.31;5037257;28;20212;-72
2022/10/25 09:00:19;;;;;;;8.00;4.45;;;;;;;14.17;100.00;96642.88;5035132;28;20198;-72
2022/10/25 09:02:51;;;;;;;8.18;4.30;;;;;;;14.23;100.00;96638.63;5034915;28;20616;-72
2022/10/25 09:05:33;;;;;;;7.47;4.03;;;;;;;14.49;100.00;96633.59;5037225;28;20656;-72
2022/10/25 09:08:10;;;;;;;7.15;3.63;;;;;;;14.50;100.00;96633.41;5037053;28;20209;-72
2022/10/25 09:10:49;;;;;;;7.68;3.13;;;;;;;14.58;100.00;96641.22;5035471;28;20212;-72
2022/10/25 09:13:29;;;;;;;9.18;4.07;;;;;;;14.58;100.00;96640.41;5035149;28;20229;-72
2022/10/25 09:16:08;;;;;;;12.60;3.95;;;;;;;14.87;100.00;96641.03;5036404;28;20205;-72
2022/10/25 09:18:42;;;;;;;6.18;3.05;;;;;;;14.91;100.00;96634.34;5036180;28;20594;-72
2022/10/25 09:21:17;;;;;;;9.00;3.47;;;;;;;15.06;100.00;96646.47;5036798;28;20209;-72
2022/10/25 09:23:55;;;;;;;5.80;2.95;;;;;;;15.10;100.00;96638.97;5036210;28;20217;-72
2022/10/25 09:26:33;;;;;;;7.03;3.42;;;;;;;15.20;100.00;96637.59;5036318;28;20201;-73
2022/10/25 09:29:04;;;;;;;6.22;3.22;;;;;;;15.22;100.00;96640.06;5036941;28;20216;-72
2022/10/25 09:31:37;;;;;;;4.80;3.00;;;;;;;15.23;100.00;96641.72;5036014;28;20201;-72
2022/10/25 09:34:08;;;;;;;5.05;2.88;;;;;;;15.24;100.00;96638.06;5034376;28;20225;-72
2022/10/25 09:36:42;;;;;;;5.75;2.72;;;;;;;15.33;100.00;96635.03;5035461;28;20205;-72
2022/10/25 09:39:19;;;;;;;7.68;2.80;;;;;;;15.51;100.00;96645.94;5036690;28;20208;-72
2022/10/25 09:41:50;;;;;;;3.60;1.95;;;;;;;15.37;100.00;96644.25;5035414;28;20204;-73
2022/10/25 09:44:29;;;;;;;6.32;2.72;;;;;;;15.38;100.00;96644.03;5034666;28;20775;-73
2022/10/25 09:47:02;;;;;;;6.68;2.95;;;;;;;15.33;100.00;96650.97;5036213;28;20209;-73
2022/10/25 09:49:34;;;;;;;5.93;1.90;;;;;;;15.43;100.00;96651.44;5034741;28;20233;-72
2022/10/25 09:52:13;;;;;;;6.20;2.35;;;;;;;15.28;100.00;96648.06;5035247;28;20201;-73
2022/10/25 09:54:46;;;;;;;5.50;1.85;;;;;;;15.35;100.00;96641.78;5035535;28;20244;-72
2022/10/25 09:57:13;;;;;;;5.22;2.38;;;;;;;15.29;100.00;96647.88;5034916;28;20201;-72
2022/10/25 09:59:40;;;;;;;7.68;2.35;;;;;;;15.39;100.00;96644.88;5036485;28;20228;-73
2022/10/25 10:02:13;;;;;;;6.05;2.28;;;;;;;15.48;100.00;96646.34;5035505;28;20539;-72
2022/10/25 10:04:39;;;;;;;6.60;2.38;;;;;;;15.37;100.00;96653.00;5035635;28;20205;-72
2022/10/25 10:07:16;;;;;;;6.43;2.30;;;;;;;15.57;100.00;96655.78;5035234;28;20208;-73
2022/10/25 10:09:44;;;;;;;4.00;2.30;;;;;;;15.69;100.00;96646.22;5035692;28;20425;-73
2022/10/25 10:12:18;;;;;;;3.20;1.90;;;;;;;15.83;100.00;96654.03;5035417;28;20696;-72
2022/10/25 10:14:50;;;;;;;7.18;1.85;;;;;;;15.78;100.00;96653.00;5035173;28;20232;-74
2022/10/25 10:17:19;;;;;;;3.72;1.75;;;;;;;15.83;100.00;96651.38;5034777;28;20208;-74
2022/10/25 10:20:08;;;;;;;10.23;2.17;;;;;;;15.98;100.00;96644.91;5034898;28;20684;-74
2022/10/25 10:22:38;;;;;;;2.67;1.48;;;;;;;15.84;100.00;96646.91;5034689;28;20229;-74
2022/10/25 10:25:05;;;;;;;4.53;2.05;;;;;;;15.91;100.00;96646.72;5035003;28;20208;-72
2022/10/25 10:27:32;;;;;;;6.28;1.75;;;;;;;16.04;100.00;96644.09;5034599;28;20209;-72
2022/10/25 10:30:02;;;;;;;2.40;1.58;;;;;;;16.21;100.00;96645.38;5034911;28;20421;-72
2022/10/25 10:32:33;;;;;;;5.00;1.67;;;;;;;16.20;100.00;96633.09;5033760;28;20585;-72
2022/10/25 10:35:02;;;;;;;6.63;1.60;;;;;;;16.37;100.00;96634.38;5035698;28;20877;-73
2022/10/25 10:37:30;;;;;;;4.78;1.70;;;;;;;16.43;100.00;96630.91;5035725;28;20231;-73
2022/10/25 10:40:00;;;;;;;7.35;2.60;;;;;;;16.47;100.00;96624.19;5035731;28;20299;-73
2022/10/25 10:42:34;;;;;;;3.75;1.45;;;;;;;16.52;100.00;96624.34;5034933;28;20225;-73
2022/10/25 10:45:14;;;;;;;4.93;1.55;;;;;;;16.41;100.00;96614.34;5035903;28;20220;-72
2022/10/25 10:47:43;;;;;;;2.88;1.50;;;;;;;16.56;100.00;96614.97;5033797;28;20673;-73
2022/10/25 10:50:12;;;;;;;5.20;1.50;;;;;;;16.42;100.00;96610.66;5037357;28;20205;-73
2022/10/25 10:52:42;;;;;;;6.40;1.85;;;;;;;16.52;100.00;96609.22;5039051;28;20236;-73
2022/10/25 10:55:18;;;;;;;5.10;1.65;;;;;;;16.71;100.00;96612.91;5039912;28;20299;-72
2022/10/25 10:57:45;;;;;;;2.88;1.40;;;;;;;16.68;100.00;96605.34;5039707;28;20201;-72
2022/10/25 11:00:21;;;;;;;3.83;1.30;;;;;;;16.81;99.30;96610.66;5039909;28;20221;-73
2022/10/25 11:02:48;;;;;;;3.50;1.60;;;;;;;16.87;99.75;96607.97;5039169;28;20224;-72
2022/10/25 11:05:20;;;;;;;5.07;1.35;;;;;;;17.05;99.27;96607.34;5039566;28;20197;-73
2022/10/25 11:07:54;;;;;;;5.22;1.45;;;;;;;17.11;97.97;96604.66;5038955;28;20208;-72
2022/10/25 11:10:26;;;;;;;2.42;1.30;;;;;;;17.06;98.88;96609.81;5038637;28;20227;-73
2022/10/25 11:13:11;;;;;;;5.50;1.42;;;;;;;17.15;97.54;96606.69;5038051;28;20217;-72
2022/10/25 11:15:56;;;;;;;3.03;1.27;;;;;;;17.21;96.22;96602.41;5037319;28;21018;-72
2022/10/25 11:18:34;;;;;;;2.03;1.17;;;;;;;17.20;96.03;96600.75;5035662;28;20202;-73
2022/10/25 11:21:09;;;;;;;4.88;1.48;;;;;;;17.36;96.07;96595.84;5038030;28;20201;-73
2022/10/25 11:23:42;;;;;;;2.38;0.90;;;;;;;17.24;91.69;96597.47;5036560;28;21220;-73
2022/10/25 11:26:20;;;;;;;4.20;1.10;;;;;;;17.39;93.03;96598.06;5036143;28;20201;-74
2022/10/25 11:28:56;;;;;;;5.78;1.20;;;;;;;17.43;91.06;96591.28;5037753;28;20201;-73
2022/10/25 11:31:33;;;;;;;1.60;1.00;;;;;;;17.53;91.92;96597.00;5037843;28;20208;-73
2022/10/25 11:34:12;;;;;;;3.17;0.85;;;;;;;17.49;91.19;96595.78;5035437;28;20260;-74